Time;durP1;ratioP1;P1;durP2;ratioP2;P2;SDS_P1;SDS_P2;PMS_P1;PMS_P2;Temp;Humidity;BMP_temperature;BMP_pressure;BME280_temperature;BME280_humidity;BME280_pressure;Samples;Min_cycle;Max_cycle;Signal;HPM_P1;HPM_P2
2020/12/06 00:01:08;;;;;;;107.05;45.08;;;0.70;99.90;;;;;;5013425;28;20037;-74
2020/12/06 00:03:36;;;;;;;108.45;46.35;;;0.70;99.90;;;;;;5012762;28;20368;-74
2020/12/06 00:06:05;;;;;;;117.40;47.03;;;0.80;99.90;;;;;;5013937;28;20026;-74
2020/12/06 00:08:30;;;;;;;122.43;45.88;;;0.80;99.90;;;;;;5026339;28;20702;-74
2020/12/06 00:10:56;;;;;;;133.45;51.55;;;0.80;99.90;;;;;;5011918;28;20030;-75
2020/12/06 00:13:23;;;;;;;112.38;46.83;;;0.70;99.90;;;;;;5013950;28;20026;-74
2020/12/06 00:15:48;;;;;;;122.68;47.83;;;0.80;99.90;;;;;;5013244;28;20034;-75
2020/12/06 00:18:14;;;;;;;117.10;47.28;;;0.80;99.90;;;;;;5013798;28;20052;-75
2020/12/06 00:20:39;;;;;;;114.88;47.58;;;0.80;99.90;;;;;;5003297;28;20402;-83
2020/12/06 00:23:05;;;;;;;117.30;44.33;;;0.80;99.90;;;;;;4992938;28;20018;-74
2020/12/06 00:25:30;;;;;;;108.88;44.75;;;0.90;99.90;;;;;;4993947;28;20402;-74
2020/12/06 00:27:56;;;;;;;104.90;42.78;;;0.80;99.90;;;;;;4994040;28;20032;-74
2020/12/06 00:30:21;;;;;;;89.93;42.80;;;0.80;99.90;;;;;;5000764;28;20502;-74
2020/12/06 00:32:46;;;;;;;103.22;41.75;;;0.80;99.90;;;;;;5013403;28;20038;-74
2020/12/06 00:35:12;;;;;;;99.72;40.50;;;0.80;99.90;;;;;;5013297;28;20037;-74
2020/12/06 00:37:40;;;;;;;97.72;43.50;;;0.80;99.90;;;;;;5013469;28;20145;-74
2020/12/06 00:40:09;;;;;;;99.78;45.28;;;0.80;99.90;;;;;;5026144;28;20483;-74
2020/12/06 00:42:35;;;;;;;91.72;41.55;;;0.80;99.90;;;;;;4993705;28;20018;-74
2020/12/06 00:45:02;;;;;;;95.75;41.30;;;0.80;99.90;;;;;;4993492;28;20034;-74
2020/12/06 00:47:28;;;;;;;92.72;40.45;;;0.70;99.90;;;;;;4993608;28;20044;-74
2020/12/06 00:49:53;;;;;;;104.57;42.30;;;0.80;99.90;;;;;;4993702;28;20483;-74
2020/12/06 00:52:19;;;;;;;92.30;39.40;;;0.90;99.90;;;;;;5009578;28;20026;-74
2020/12/06 00:54:44;;;;;;;93.25;40.03;;;0.80;99.90;;;;;;5012935;28;20040;-74
2020/12/06 00:57:09;;;;;;;103.13;43.20;;;0.80;99.90;;;;;;5013057;28;20022;-74
2020/12/06 00:59:35;;;;;;;88.85;40.45;;;0.80;99.90;;;;;;5011883;28;20029;-74
2020/12/06 01:02:03;;;;;;;90.88;38.30;;;0.70;99.90;;;;;;4993373;28;20068;-74
2020/12/06 01:04:28;;;;;;;80.32;35.63;;;0.70;99.90;;;;;;4991953;28;20121;-75
2020/12/06 01:06:58;;;;;;;101.07;42.60;;;0.70;99.90;;;;;;4993332;28;20113;-74
2020/12/06 01:09:23;;;;;;;88.88;36.90;;;0.60;99.90;;;;;;4993345;28;20537;-74
2020/12/06 01:11:49;;;;;;;80.85;37.72;;;0.60;99.90;;;;;;5008984;28;20045;-74
2020/12/06 01:14:14;;;;;;;80.75;36.80;;;0.60;99.90;;;;;;5027752;28;20057;-74
2020/12/06 01:16:39;;;;;;;76.82;36.13;;;0.60;99.90;;;;;;4994715;28;20121;-74
2020/12/06 01:19:05;;;;;;;87.82;37.13;;;0.60;99.90;;;;;;4991826;28;20379;-74
2020/12/06 01:21:30;;;;;;;85.85;38.72;;;0.60;99.90;;;;;;4994057;28;20156;-74
2020/12/06 01:23:56;;;;;;;84.88;38.10;;;0.60;99.90;;;;;;4991562;28;20030;-74
2020/12/06 01:26:21;;;;;;;79.80;37.28;;;0.70;99.90;;;;;;4993035;28;20034;-73
2020/12/06 01:28:47;;;;;;;93.15;39.17;;;0.70;99.90;;;;;;5007915;28;20415;-73
2020/12/06 01:31:12;;;;;;;83.55;37.65;;;0.60;99.90;;;;;;5005295;28;20037;-74
2020/12/06 01:33:38;;;;;;;104.28;42.80;;;0.60;99.90;;;;;;5011249;28;20025;-73
2020/12/06 01:36:03;;;;;;;109.85;41.92;;;0.60;99.90;;;;;;5012278;28;20014;-73
2020/12/06 01:38:29;;;;;;;85.03;39.22;;;0.60;99.90;;;;;;5011942;28;20096;-74
2020/12/06 01:40:54;;;;;;;86.07;38.53;;;0.60;99.90;;;;;;5003421;28;20030;-74
2020/12/06 01:43:20;;;;;;;88.93;39.40;;;0.60;99.90;;;;;;4991438;28;20235;-73
2020/12/06 01:45:45;;;;;;;80.43;36.95;;;0.50;99.90;;;;;;4992472;28;20045;-74
2020/12/06 01:48:11;;;;;;;87.68;38.15;;;0.50;99.90;;;;;;4992668;28;20029;-73
2020/12/06 01:50:40;;;;;;;86.38;39.67;;;0.50;99.90;;;;;;4994138;28;20402;-73
2020/12/06 01:53:07;;;;;;;87.32;37.00;;;0.40;99.90;;;;;;5010959;28;20125;-73
2020/12/06 01:55:32;;;;;;;83.95;36.33;;;0.40;99.90;;;;;;5012079;28;20509;-73
2020/12/06 01:58:05;;;;;;;88.55;39.63;;;0.30;99.90;;;;;;5011999;28;20030;-73
2020/12/06 02:00:32;;;;;;;89.47;39.88;;;0.30;99.90;;;;;;5003525;28;20027;-73
2020/12/06 02:02:58;;;;;;;124.15;48.47;;;0.30;99.90;;;;;;4991212;28;20129;-74
2020/12/06 02:05:24;;;;;;;97.43;40.63;;;0.30;99.90;;;;;;4991075;28;20019;-74
2020/12/06 02:07:51;;;;;;;95.05;42.00;;;0.30;99.90;;;;;;4992515;28;20030;-74
2020/12/06 02:10:17;;;;;;;99.00;42.22;;;0.30;99.90;;;;;;4994429;28;20034;-73
2020/12/06 02:12:47;;;;;;;104.50;44.40;;;0.40;99.90;;;;;;5011258;28;20056;-74
2020/12/06 02:15:13;;;;;;;106.13;44.35;;;0.40;99.90;;;;;;5005703;28;20553;-74
2020/12/06 02:17:39;;;;;;;99.70;42.00;;;0.40;99.90;;;;;;4992303;28;20027;-73
2020/12/06 02:20:05;;;;;;;101.65;40.30;;;0.40;99.90;;;;;;4992383;28;20033;-73
2020/12/06 02:22:30;;;;;;;95.63;40.85;;;0.40;99.90;;;;;;5026079;28;20033;-73
2020/12/06 02:24:55;;;;;;;111.03;45.72;;;0.40;99.90;;;;;;5011553;28;20026;-74
2020/12/06 02:27:21;;;;;;;115.15;47.10;;;0.50;99.90;;;;;;5011798;28;20030;-73
2020/12/06 02:29:46;;;;;;;105.57;43.05;;;0.50;99.90;;;;;;5009258;28;20082;-73
2020/12/06 02:32:12;;;;;;;105.68;43.28;;;0.50;99.90;;;;;;4992044;28;20050;-73
2020/12/06 02:34:37;;;;;;;109.05;43.70;;;0.50;99.90;;;;;;4992033;28;20386;-74
2020/12/06 02:37:03;;;;;;;97.03;41.45;;;0.60;99.90;;;;;;4992404;28;20507;-73
2020/12/06 02:39:28;;;;;;;109.32;44.95;;;0.60;99.90;;;;;;4990882;28;20031;-73
2020/12/06 02:41:54;;;;;;;114.40;46.40;;;0.60;99.90;;;;;;5007230;28;20109;-73
2020/12/06 02:44:19;;;;;;;97.85;45.42;;;0.60;99.90;;;;;;5011581;28;20556;-73
2020/12/06 02:46:45;;;;;;;109.38;47.75;;;0.70;99.90;;;;;;5011301;28;20040;-74
2020/12/06 02:49:10;;;;;;;105.07;43.78;;;0.70;99.90;;;;;;5012091;28;20050;-74
2020/12/06 02:51:37;;;;;;;96.15;40.60;;;0.80;99.90;;;;;;5003470;28;20053;-73
2020/12/06 02:54:03;;;;;;;116.80;47.28;;;0.70;99.90;;;;;;4995568;28;20026;-73
2020/12/06 02:56:29;;;;;;;106.97;43.15;;;0.70;99.90;;;;;;4995700;28;20034;-73
2020/12/06 02:58:54;;;;;;;99.75;42.92;;;0.70;99.90;;;;;;4995747;28;20033;-73
2020/12/06 03:01:20;;;;;;;101.22;43.17;;;0.70;99.90;;;;;;5010234;28;20034;-73
2020/12/06 03:03:46;;;;;;;101.88;40.95;;;0.80;99.90;;;;;;5015027;28;20394;-73
2020/12/06 03:06:12;;;;;;;118.38;45.47;;;0.80;99.90;;;;;;5015185;28;20394;-74
2020/12/06 03:08:38;;;;;;;108.50;45.75;;;0.70;99.90;;;;;;5018946;28;20022;-74
2020/12/06 03:11:06;;;;;;;122.03;49.42;;;0.80;99.90;;;;;;5018369;28;20022;-73
2020/12/06 03:13:31;;;;;;;137.68;53.08;;;0.90;99.90;;;;;;4995262;28;20029;-73
2020/12/06 03:15:57;;;;;;;116.55;48.00;;;1.00;99.90;;;;;;5007256;28;20101;-73
2020/12/06 03:18:22;;;;;;;128.40;50.63;;;1.00;99.90;;;;;;5030095;28;20060;-73
2020/12/06 03:20:47;;;;;;;134.15;49.13;;;1.10;99.90;;;;;;5014381;28;20022;-73
2020/12/06 03:23:13;;;;;;;135.63;51.00;;;1.10;99.90;;;;;;5014815;28;20430;-74
2020/12/06 03:25:38;;;;;;;132.48;51.05;;;1.10;99.90;;;;;;5014520;28;20033;-73
2020/12/06 03:28:04;;;;;;;119.60;48.50;;;1.10;99.90;;;;;;5014777;28;20029;-73
2020/12/06 03:30:29;;;;;;;127.35;50.42;;;1.10;99.90;;;;;;5012713;28;20042;-74
2020/12/06 03:32:55;;;;;;;113.43;47.20;;;1.10;99.90;;;;;;5014624;28;20030;-73
2020/12/06 03:35:20;;;;;;;116.78;46.13;;;1.10;99.90;;;;;;5014452;28;20038;-73
2020/12/06 03:37:46;;;;;;;109.15;43.40;;;1.10;99.90;;;;;;5014433;28;20528;-73
2020/12/06 03:40:11;;;;;;;118.63;46.58;;;1.10;99.90;;;;;;5011268;28;20033;-73
2020/12/06 03:42:37;;;;;;;110.13;47.05;;;1.20;99.90;;;;;;4994932;28;20097;-74
2020/12/06 03:45:03;;;;;;;125.00;48.83;;;1.10;99.90;;;;;;4998822;28;20478;-73
2020/12/06 03:47:29;;;;;;;121.20;51.00;;;1.10;99.90;;;;;;5014303;28;20029;-74
2020/12/06 03:49:54;;;;;;;140.30;50.78;;;1.10;99.90;;;;;;5029277;28;20022;-74
2020/12/06 03:52:20;;;;;;;116.00;47.20;;;1.20;99.90;;;;;;4995310;28;20120;-73
2020/12/06 03:54:45;;;;;;;115.07;47.85;;;1.10;99.90;;;;;;4993979;28;20053;-73
2020/12/06 03:57:11;;;;;;;131.90;48.65;;;1.10;99.90;;;;;;4994610;28;20038;-73
2020/12/06 03:59:36;;;;;;;127.97;51.10;;;1.10;99.90;;;;;;4994985;28;20030;-74
2020/12/06 04:02:01;;;;;;;122.15;50.70;;;1.10;99.90;;;;;;4994223;28;20030;-74
2020/12/06 04:04:27;;;;;;;122.97;48.47;;;1.10;99.90;;;;;;4994371;28;20027;-73
2020/12/06 04:06:52;;;;;;;107.28;44.97;;;1.00;99.90;;;;;;4993265;28;20022;-73
2020/12/06 04:09:18;;;;;;;101.78;45.90;;;1.10;99.90;;;;;;4994359;28;20034;-73
2020/12/06 04:11:43;;;;;;;113.35;45.97;;;1.10;99.90;;;;;;5009341;28;20049;-74
2020/12/06 04:14:09;;;;;;;129.63;52.22;;;1.00;99.90;;;;;;5012522;28;20441;-74
2020/12/06 04:16:34;;;;;;;140.95;52.35;;;0.90;99.90;;;;;;5013456;28;20030;-73
2020/12/06 04:19:00;;;;;;;132.73;48.97;;;1.00;99.90;;;;;;5029078;28;20026;-74
2020/12/06 04:21:25;;;;;;;123.63;47.83;;;1.00;99.90;;;;;;5012028;28;20068;-73
2020/12/06 04:23:51;;;;;;;140.88;52.03;;;1.00;99.90;;;;;;5013441;28;20836;-73
2020/12/06 04:26:16;;;;;;;155.85;55.45;;;1.10;99.90;;;;;;5013709;28;20064;-74
2020/12/06 04:28:41;;;;;;;140.55;52.95;;;1.10;99.90;;;;;;5013641;28;20030;-73
2020/12/06 04:31:07;;;;;;;132.35;50.55;;;1.20;99.90;;;;;;5011200;28;20123;-74
2020/12/06 04:33:33;;;;;;;136.40;52.03;;;1.20;99.90;;;;;;5013261;28;20030;-73
2020/12/06 04:35:58;;;;;;;147.57;55.75;;;1.30;99.90;;;;;;5013325;28;20424;-74
2020/12/06 04:38:23;;;;;;;147.75;54.33;;;1.40;99.90;;;;;;5013275;28;20040;-73
2020/12/06 04:40:49;;;;;;;133.30;51.60;;;1.40;99.90;;;;;;5005357;28;20034;-74
2020/12/06 04:43:18;;;;;;;128.98;50.95;;;1.50;99.90;;;;;;4993821;28;20386;-74
2020/12/06 04:45:44;;;;;;;156.77;57.30;;;1.50;99.90;;;;;;4993578;28;20073;-73
2020/12/06 04:48:13;;;;;;;140.13;55.00;;;1.60;99.90;;;;;;4993650;28;20044;-73
2020/12/06 04:50:45;;;;;;;146.25;56.60;;;1.60;99.90;;;;;;4996973;28;20026;-73
2020/12/06 04:53:17;;;;;;;130.60;53.53;;;1.70;99.90;;;;;;5013212;28;20445;-74
2020/12/06 04:55:45;;;;;;;156.93;56.35;;;1.70;99.90;;;;;;5012955;28;20075;-73
2020/12/06 04:58:19;;;;;;;152.63;56.60;;;1.80;99.90;;;;;;5013036;28;20049;-73
2020/12/06 05:00:45;;;;;;;145.27;51.97;;;1.70;99.90;;;;;;5002809;28;20394;-74
2020/12/06 05:03:12;;;;;;;151.27;54.97;;;1.80;99.90;;;;;;4994191;28;20029;-74
2020/12/06 05:05:41;;;;;;;158.00;54.35;;;1.80;99.90;;;;;;4993176;28;20026;-73
2020/12/06 05:08:12;;;;;;;154.27;57.35;;;1.80;99.90;;;;;;4992028;28;20018;-74
2020/12/06 05:10:39;;;;;;;163.15;59.95;;;1.90;99.90;;;;;;4993054;28;20083;-73
2020/12/06 05:13:07;;;;;;;174.60;60.72;;;2.00;99.90;;;;;;4992632;28;20033;-74
2020/12/06 05:15:32;;;;;;;163.75;59.03;;;2.10;99.90;;;;;;4993027;28;20038;-74
2020/12/06 05:17:58;;;;;;;151.32;58.33;;;2.10;99.90;;;;;;4993061;28;20129;-73
2020/12/06 05:20:25;;;;;;;188.73;62.53;;;2.10;99.90;;;;;;4994633;28;20364;-73
2020/12/06 05:22:51;;;;;;;179.82;59.45;;;2.20;99.90;;;;;;5012663;28;20034;-73
2020/12/06 05:25:17;;;;;;;177.27;61.60;;;2.20;99.90;;;;;;5011240;28;20022;-74
2020/12/06 05:27:43;;;;;;;162.45;57.83;;;2.30;99.90;;;;;;5012626;28;20081;-74
2020/12/06 05:30:09;;;;;;;172.73;60.97;;;2.30;99.90;;;;;;5007253;28;20030;-73
2020/12/06 05:32:35;;;;;;;178.48;63.03;;;2.40;99.90;;;;;;4992583;28;20049;-73
2020/12/06 05:35:02;;;;;;;187.18;66.88;;;2.40;99.90;;;;;;4992727;28;20110;-73
2020/12/06 05:37:27;;;;;;;167.68;58.80;;;2.40;99.90;;;;;;4992856;28;20221;-74
2020/12/06 05:40:07;;;;;;;170.13;60.58;;;2.50;99.90;;;;;;4992799;28;20548;-74
2020/12/06 05:42:34;;;;;;;198.30;65.95;;;2.60;99.90;;;;;;5027306;28;20478;-73
2020/12/06 05:45:00;;;;;;;184.05;66.45;;;2.60;99.90;;;;;;5010494;28;20060;-74
2020/12/06 05:47:26;;;;;;;190.70;67.32;;;2.60;99.90;;;;;;5012303;28;20029;-74
2020/12/06 05:49:55;;;;;;;191.23;64.53;;;2.70;99.90;;;;;;5012311;28;20032;-74
2020/12/06 05:52:20;;;;;;;210.73;68.40;;;2.70;99.90;;;;;;4994973;28;20517;-73
2020/12/06 05:54:47;;;;;;;214.80;70.05;;;2.70;99.90;;;;;;4992522;28;20027;-73
2020/12/06 05:57:13;;;;;;;202.50;68.03;;;2.70;99.90;;;;;;4992481;28;20494;-74
2020/12/06 05:59:40;;;;;;;197.30;68.90;;;2.80;99.90;;;;;;4991994;28;20026;-74
2020/12/06 06:02:07;;;;;;;225.93;74.20;;;2.80;99.90;;;;;;5012035;28;20418;-73
2020/12/06 06:04:39;;;;;;;245.07;78.70;;;2.80;99.90;;;;;;5011891;28;20045;-74
2020/12/06 06:07:12;;;;;;;242.05;79.60;;;2.90;99.90;;;;;;5012117;28;20105;-74
2020/12/06 06:09:42;;;;;;;258.45;76.57;;;3.00;99.90;;;;;;5012097;28;20081;-73
2020/12/06 06:12:29;;;;;;;253.57;79.70;;;3.10;99.90;;;;;;4993382;28;20034;-73
2020/12/06 06:14:57;;;;;;;262.13;80.28;;;3.20;99.90;;;;;;4993297;28;20517;-74
2020/12/06 06:17:24;;;;;;;236.20;76.10;;;3.20;99.90;;;;;;4992279;28;20650;-74
2020/12/06 06:19:50;;;;;;;229.93;76.72;;;3.20;99.90;;;;;;4992369;28;20106;-74
2020/12/06 06:22:19;;;;;;;221.20;72.97;;;3.10;99.90;;;;;;5007524;28;20033;-74
2020/12/06 06:24:46;;;;;;;240.15;74.97;;;3.20;99.90;;;;;;5014418;28;20080;-73
2020/12/06 06:27:12;;;;;;;236.43;72.45;;;3.20;99.90;;;;;;5015964;28;20113;-73
2020/12/06 06:29:37;;;;;;;229.70;76.25;;;3.20;99.90;;;;;;5013799;28;20104;-73
2020/12/06 06:32:03;;;;;;;218.27;71.05;;;3.20;99.90;;;;;;4996106;28;20490;-73
2020/12/06 06:34:33;;;;;;;198.85;68.72;;;3.20;99.90;;;;;;4995989;28;20026;-74
2020/12/06 06:36:59;;;;;;;218.43;72.40;;;3.20;99.90;;;;;;4996095;28;20437;-74
2020/12/06 06:39:26;;;;;;;208.90;66.47;;;3.20;99.90;;;;;;4994874;28;20018;-73
2020/12/06 06:42:09;;;;;;;221.32;72.43;;;3.20;99.90;;;;;;5012146;28;20026;-74
2020/12/06 06:44:37;;;;;;;218.38;72.50;;;3.20;99.90;;;;;;5014053;28;20520;-74
2020/12/06 06:47:05;;;;;;;200.38;67.18;;;3.30;99.90;;;;;;5015616;28;20458;-74
2020/12/06 06:49:34;;;;;;;196.93;66.90;;;3.30;99.90;;;;;;5015411;28;20096;-74
2020/12/06 06:52:03;;;;;;;203.52;70.35;;;3.30;99.90;;;;;;5013454;28;20052;-74
2020/12/06 06:54:29;;;;;;;229.63;72.63;;;3.30;99.90;;;;;;5015330;28;20034;-74
2020/12/06 06:56:56;;;;;;;248.15;73.05;;;3.40;99.90;;;;;;5014118;28;20025;-74
2020/12/06 06:59:44;;;;;;;250.32;79.00;;;3.40;99.90;;;;;;5015404;28;20071;-74
2020/12/06 07:02:19;;;;;;;253.60;82.18;;;3.40;99.90;;;;;;5027209;28;20100;-74
2020/12/06 07:04:47;;;;;;;262.52;79.22;;;3.50;99.90;;;;;;4994154;28;20560;-74
2020/12/06 07:07:13;;;;;;;243.50;77.00;;;3.50;99.90;;;;;;4995749;28;20026;-73
2020/12/06 07:09:38;;;;;;;249.20;79.40;;;3.50;99.90;;;;;;4995598;28;20454;-73
2020/12/06 07:12:04;;;;;;;285.67;84.32;;;3.50;99.90;;;;;;4995781;28;20109;-74
2020/12/06 07:14:30;;;;;;;235.00;79.60;;;3.60;99.90;;;;;;4995219;28;20042;-73
2020/12/06 07:16:56;;;;;;;275.05;82.43;;;3.60;99.90;;;;;;4995260;28;20430;-73
2020/12/06 07:19:22;;;;;;;264.17;82.00;;;3.60;99.90;;;;;;4995383;28;20026;-73
2020/12/06 07:21:49;;;;;;;294.02;87.78;;;3.60;99.90;;;;;;4996313;28;20026;-74
2020/12/06 07:24:16;;;;;;;262.23;81.38;;;3.70;99.90;;;;;;4995178;28;20030;-73
2020/12/06 07:26:43;;;;;;;233.52;81.25;;;3.70;99.90;;;;;;4994042;28;20049;-74
2020/12/06 07:29:09;;;;;;;266.85;83.72;;;3.70;99.90;;;;;;4995149;28;20380;-74
2020/12/06 07:31:35;;;;;;;275.75;81.93;;;3.70;99.90;;;;;;5010953;28;20057;-74
2020/12/06 07:34:01;;;;;;;288.05;82.00;;;3.70;99.90;;;;;;5014514;28;20421;-73
2020/12/06 07:36:35;;;;;;;295.67;85.72;;;3.70;99.90;;;;;;5012678;28;20026;-74
2020/12/06 07:39:13;;;;;;;294.30;89.90;;;3.70;99.90;;;;;;5014607;28;20018;-74
2020/12/06 07:41:49;;;;;;;277.45;89.70;;;3.70;99.90;;;;;;5000129;28;20037;-73
2020/12/06 07:44:15;;;;;;;256.83;85.43;;;3.70;99.90;;;;;;4994794;28;20486;-73
2020/12/06 07:46:41;;;;;;;286.85;86.68;;;3.80;99.90;;;;;;4993576;28;20084;-74
2020/12/06 07:49:07;;;;;;;283.40;90.65;;;3.80;99.90;;;;;;4993605;28;20444;-73
2020/12/06 07:51:32;;;;;;;297.30;90.40;;;3.80;99.90;;;;;;5005214;28;20033;-73
2020/12/06 07:54:01;;;;;;;294.40;88.47;;;3.90;99.90;;;;;;5014053;28;20037;-74
2020/12/06 07:56:29;;;;;;;291.08;88.20;;;3.90;99.90;;;;;;5014282;28;20022;-74
2020/12/06 07:59:13;;;;;;;292.75;85.22;;;3.90;99.90;;;;;;5014263;28;20100;-74
2020/12/06 08:01:41;;;;;;;305.55;89.05;;;3.90;99.90;;;;;;5004367;28;20030;-74
2020/12/06 08:04:11;;;;;;;294.25;87.85;;;3.80;99.90;;;;;;5013519;28;20375;-74
2020/12/06 08:06:39;;;;;;;283.48;89.20;;;3.80;99.90;;;;;;5013893;28;20025;-74
2020/12/06 08:09:05;;;;;;;257.98;86.10;;;3.90;99.90;;;;;;5013806;28;20026;-74
2020/12/06 08:11:35;;;;;;;287.75;90.93;;;3.90;99.90;;;;;;5013145;28;20026;-74
2020/12/06 08:14:02;;;;;;;285.80;87.53;;;3.90;99.90;;;;;;5012376;28;20026;-74
2020/12/06 08:16:28;;;;;;;302.23;96.45;;;3.90;99.90;;;;;;5013365;28;20076;-73
2020/12/06 08:19:03;;;;;;;263.15;86.05;;;4.00;99.90;;;;;;5013784;28;20409;-74
2020/12/06 08:21:44;;;;;;;277.10;90.15;;;4.00;99.90;;;;;;5002849;28;20034;-73
2020/12/06 08:24:24;;;;;;;284.27;89.22;;;4.10;99.90;;;;;;4992590;28;20041;-74
2020/12/06 08:26:51;;;;;;;273.30;87.13;;;4.10;99.90;;;;;;4993970;28;20032;-73
2020/12/06 08:29:17;;;;;;;298.98;92.15;;;4.10;99.90;;;;;;4992730;28;20030;-74
2020/12/06 08:31:43;;;;;;;294.27;90.00;;;4.10;99.90;;;;;;5006707;28;20034;-74
2020/12/06 08:34:10;;;;;;;249.77;84.93;;;4.10;99.90;;;;;;5013184;28;20025;-74
2020/12/06 08:36:35;;;;;;;271.65;87.68;;;4.20;99.90;;;;;;5021095;28;20025;-74
2020/12/06 08:39:01;;;;;;;255.10;86.20;;;4.20;99.90;;;;;;5033176;28;20481;-73
2020/12/06 08:41:27;;;;;;;286.33;87.90;;;4.20;99.90;;;;;;5016412;28;20026;-74
2020/12/06 08:44:05;;;;;;;281.58;87.45;;;4.20;99.90;;;;;;5011703;28;20033;-74
2020/12/06 08:46:32;;;;;;;274.45;83.63;;;4.20;99.90;;;;;;5006266;28;20466;-74
2020/12/06 08:49:00;;;;;;;276.90;88.53;;;4.20;99.90;;;;;;5020568;28;20192;-74
2020/12/06 08:51:37;;;;;;;242.88;82.70;;;4.20;99.90;;;;;;5022232;28;20026;-74
2020/12/06 08:54:04;;;;;;;239.38;80.53;;;4.20;99.90;;;;;;4998179;28;20072;-73
2020/12/06 08:56:34;;;;;;;218.73;79.93;;;4.10;99.90;;;;;;4992059;28;20429;-74
2020/12/06 08:59:06;;;;;;;225.75;77.80;;;4.20;99.90;;;;;;4992304;28;20022;-74
2020/12/06 09:01:32;;;;;;;222.13;76.60;;;4.20;99.90;;;;;;5008977;28;20038;-73
2020/12/06 09:03:58;;;;;;;218.52;78.18;;;4.20;99.90;;;;;;5012866;28;20475;-74
2020/12/06 09:06:24;;;;;;;223.93;75.20;;;4.20;99.90;;;;;;5012927;28;20030;-74
2020/12/06 09:08:49;;;;;;;223.50;81.25;;;4.30;99.90;;;;;;5012939;28;20032;-74
2020/12/06 09:11:20;;;;;;;217.07;76.53;;;4.20;99.90;;;;;;4999947;28;20391;-74
2020/12/06 09:13:46;;;;;;;206.70;75.50;;;4.30;99.90;;;;;;4992995;28;20541;-73
2020/12/06 09:16:12;;;;;;;195.55;72.43;;;4.30;99.90;;;;;;4993134;28;20034;-74
2020/12/06 09:18:39;;;;;;;211.00;73.63;;;4.30;99.90;;;;;;4993105;28;20483;-74
2020/12/06 09:21:05;;;;;;;212.82;76.65;;;4.30;99.90;;;;;;4992731;28;20030;-74
2020/12/06 09:23:31;;;;;;;207.38;75.40;;;4.30;99.90;;;;;;4993080;28;20105;-74
2020/12/06 09:26:01;;;;;;;213.82;75.85;;;4.30;99.90;;;;;;4992712;28;20031;-74
2020/12/06 09:28:27;;;;;;;198.35;73.63;;;4.30;99.90;;;;;;4993024;28;20026;-74
2020/12/06 09:30:53;;;;;;;202.65;75.30;;;4.30;99.90;;;;;;5003109;28;20083;-74
2020/12/06 09:33:19;;;;;;;204.60;74.57;;;4.30;99.90;;;;;;5012487;28;20433;-74
2020/12/06 09:35:44;;;;;;;204.88;74.32;;;4.40;99.90;;;;;;5012195;28;20109;-74
2020/12/06 09:38:10;;;;;;;191.80;74.78;;;4.40;99.90;;;;;;5012257;28;20060;-74
2020/12/06 09:40:35;;;;;;;190.43;69.18;;;4.40;99.90;;;;;;5006314;28;20085;-73
2020/12/06 09:43:01;;;;;;;192.40;74.03;;;4.40;99.90;;;;;;4992785;28;20093;-73
2020/12/06 09:45:26;;;;;;;176.00;74.13;;;4.40;99.90;;;;;;5014526;28;20494;-74
2020/12/06 09:47:52;;;;;;;164.63;68.30;;;4.40;99.90;;;;;;5010962;28;20037;-73
2020/12/06 09:50:17;;;;;;;183.75;72.65;;;4.40;99.90;;;;;;5010328;28;20026;-73
2020/12/06 09:52:43;;;;;;;182.95;72.72;;;4.40;99.90;;;;;;4991173;28;20031;-73
2020/12/06 09:55:08;;;;;;;166.35;70.00;;;4.50;99.90;;;;;;4991070;28;20530;-73
2020/12/06 09:57:33;;;;;;;170.00;67.70;;;4.40;99.90;;;;;;4992499;28;20064;-73
2020/12/06 09:59:59;;;;;;;170.25;67.82;;;4.40;99.90;;;;;;4995752;28;20044;-73
2020/12/06 10:02:24;;;;;;;166.23;67.85;;;4.50;99.90;;;;;;5012085;28;20156;-73
2020/12/06 10:04:50;;;;;;;175.98;70.05;;;4.50;99.90;;;;;;5011881;28;20030;-73
2020/12/06 10:07:15;;;;;;;164.98;68.28;;;4.50;99.90;;;;;;5011927;28;20034;-74
2020/12/06 10:09:41;;;;;;;168.05;69.90;;;4.40;99.90;;;;;;5011928;28;20512;-73
2020/12/06 10:12:06;;;;;;;164.18;67.93;;;4.50;99.90;;;;;;5011260;28;20022;-73
2020/12/06 10:14:32;;;;;;;158.55;65.55;;;4.50;99.90;;;;;;5011470;28;20049;-73
2020/12/06 10:16:57;;;;;;;161.40;64.97;;;4.50;99.90;;;;;;5011848;28;20037;-74
2020/12/06 10:19:23;;;;;;;153.93;63.58;;;4.50;99.90;;;;;;5011850;28;20022;-73
2020/12/06 10:21:48;;;;;;;151.73;67.75;;;4.50;99.90;;;;;;4998853;28;20030;-73
2020/12/06 10:24:13;;;;;;;151.85;64.50;;;4.60;99.90;;;;;;4992020;28;20031;-73
2020/12/06 10:26:39;;;;;;;150.13;66.18;;;4.60;99.90;;;;;;4992189;28;20085;-73
2020/12/06 10:29:04;;;;;;;145.07;64.15;;;4.60;99.90;;;;;;4992192;28;20034;-74
2020/12/06 10:31:30;;;;;;;153.70;63.83;;;4.70;99.90;;;;;;5007529;28;20041;-75
2020/12/06 10:33:55;;;;;;;160.50;62.13;;;4.60;99.90;;;;;;5010243;28;20548;-73
2020/12/06 10:36:21;;;;;;;150.30;64.90;;;4.70;99.90;;;;;;5011832;28;20381;-74
2020/12/06 10:38:46;;;;;;;145.82;63.20;;;4.70;99.90;;;;;;5011580;28;20034;-74
2020/12/06 10:41:12;;;;;;;149.90;61.95;;;4.70;99.90;;;;;;5016052;28;20030;-73
2020/12/06 10:43:37;;;;;;;127.97;59.00;;;4.70;99.90;;;;;;4992023;28;20030;-74
2020/12/06 10:46:03;;;;;;;140.65;63.10;;;4.70;99.90;;;;;;4991925;28;20117;-73
2020/12/06 10:48:28;;;;;;;133.48;58.58;;;4.70;99.90;;;;;;4992065;28;20038;-73
2020/12/06 10:50:54;;;;;;;130.93;61.15;;;4.70;99.90;;;;;;4994348;28;20506;-73
2020/12/06 10:53:20;;;;;;;137.85;62.17;;;4.80;99.90;;;;;;5014475;28;20025;-73
2020/12/06 10:55:46;;;;;;;134.18;57.35;;;4.80;99.90;;;;;;5027010;28;20029;-74
2020/12/06 10:58:11;;;;;;;140.70;61.67;;;4.90;99.90;;;;;;5027480;28;20493;-74
2020/12/06 11:00:37;;;;;;;131.55;58.83;;;4.90;99.90;;;;;;5003058;28;20102;-74
2020/12/06 11:03:02;;;;;;;132.35;58.72;;;5.00;99.90;;;;;;5023739;28;20053;-73
2020/12/06 11:05:28;;;;;;;130.25;58.42;;;5.10;99.90;;;;;;5029332;28;20040;-74
2020/12/06 11:07:53;;;;;;;142.18;61.13;;;5.10;99.90;;;;;;5027085;28;20045;-74
2020/12/06 11:10:19;;;;;;;132.95;58.65;;;5.10;99.90;;;;;;5008734;28;20108;-73
2020/12/06 11:12:44;;;;;;;134.15;59.42;;;5.10;99.90;;;;;;5012522;28;20030;-74
2020/12/06 11:15:10;;;;;;;134.93;59.53;;;5.10;99.90;;;;;;5013132;28;20442;-74
2020/12/06 11:17:35;;;;;;;136.98;60.08;;;5.10;99.90;;;;;;5014709;28;20076;-73
2020/12/06 11:20:02;;;;;;;134.02;58.25;;;5.10;99.90;;;;;;5028131;28;20037;-73
2020/12/06 11:22:27;;;;;;;154.23;58.38;;;5.10;99.90;;;;;;5014485;28;20030;-73
2020/12/06 11:24:53;;;;;;;135.63;58.65;;;5.10;99.90;;;;;;5014678;28;20028;-73
2020/12/06 11:27:19;;;;;;;140.27;57.88;;;5.10;99.90;;;;;;5020428;28;20018;-73
2020/12/06 11:29:45;;;;;;;134.65;54.75;;;5.10;99.90;;;;;;4994908;28;20030;-74
2020/12/06 11:32:10;;;;;;;124.93;55.97;;;5.10;99.90;;;;;;4993376;28;20092;-73
2020/12/06 11:34:36;;;;;;;131.10;57.00;;;5.10;99.90;;;;;;4994832;28;20070;-74
2020/12/06 11:37:01;;;;;;;137.10;56.42;;;5.20;99.90;;;;;;4994819;28;20061;-74
2020/12/06 11:39:27;;;;;;;138.45;57.35;;;5.20;99.90;;;;;;5023756;28;20610;-74
2020/12/06 11:41:54;;;;;;;135.10;57.03;;;5.10;99.90;;;;;;5032763;28;20026;-74
2020/12/06 11:44:19;;;;;;;140.75;56.30;;;5.10;99.90;;;;;;5032640;28;20021;-74
2020/12/06 11:46:46;;;;;;;151.82;57.42;;;5.10;99.90;;;;;;5034126;28;20503;-74
2020/12/06 11:49:12;;;;;;;138.18;55.75;;;5.10;99.90;;;;;;5021472;28;20095;-74
2020/12/06 11:51:37;;;;;;;136.93;52.88;;;5.20;99.90;;;;;;5011627;28;20045;-73
2020/12/06 11:54:03;;;;;;;130.00;55.00;;;5.20;99.90;;;;;;5012777;28;20018;-73
2020/12/06 11:56:29;;;;;;;149.15;57.20;;;5.20;99.90;;;;;;5014232;28;20026;-74
2020/12/06 11:58:54;;;;;;;125.70;53.30;;;5.20;99.90;;;;;;5013741;28;20100;-74
2020/12/06 12:01:20;;;;;;;123.82;53.72;;;5.20;99.90;;;;;;5013570;28;20025;-74
2020/12/06 12:03:45;;;;;;;138.93;57.63;;;5.30;99.90;;;;;;5020271;28;20023;-73
2020/12/06 12:06:10;;;;;;;123.57;50.80;;;5.20;99.90;;;;;;5014004;28;20160;-74
2020/12/06 12:08:36;;;;;;;126.60;53.75;;;5.20;99.90;;;;;;5012946;28;20034;-74
2020/12/06 12:11:03;;;;;;;129.38;53.40;;;5.30;99.90;;;;;;5013350;28;20026;-76
2020/12/06 12:13:28;;;;;;;138.80;54.25;;;5.30;99.90;;;;;;5013900;28;20026;-75
2020/12/06 12:15:54;;;;;;;136.82;54.40;;;5.30;99.90;;;;;;5011573;28;20022;-74
2020/12/06 12:18:19;;;;;;;134.18;54.30;;;5.30;99.90;;;;;;5012754;28;20555;-75
2020/12/06 12:20:45;;;;;;;135.20;54.42;;;5.30;99.90;;;;;;5013155;28;20026;-74
2020/12/06 12:23:10;;;;;;;132.60;53.63;;;5.40;99.90;;;;;;5013566;28;20101;-74
2020/12/06 12:25:37;;;;;;;137.55;55.45;;;5.40;99.90;;;;;;5013471;28;20108;-74